Placitas, NM (87043)

8:49 AM MST on February 06, 2016 (GMT -0700)
High Mesa | | Change Station
CLOSE
Current Station
Personal Weather Station
Location: Placitas, NM
Elevation: 5640 ft
Nearby Weather Stations

Elev 5640 ft 35.34 °N, 106.45 °W | Updated 16 seconds ago

Clear
Clear
29.7 °F
Feels Like 23 °F
N
6.1
Wind Variable Wind from SW
Gusts 8.3 mph

Today
High -- | Low -- °F
--% Chance of Precip.
Yesterday
High -- | Low -- °F
Precip. -- in
Pressure 30.56 in
Visibility 10.0 miles
Clouds Few 20000 ft
Windchill 23 °F
Dew Point 17 °F
Humidity 59%
Rainfall 0.00 in
Snow Depth Not available.
7:01 AM 5:38 PM
Waning Crescent, 5% visible
METAR KABQ 061452Z 28005KT 10SM FEW200 M04/M11 A3050 RMK AO2 SLP348 T10441111 53009
Pressure 30.56 in
Visibility 10.0 miles
Clouds Few 20000 ft
Windchill 23 °F
Dew Point 17 °F
Humidity 59%
Rainfall 0.00 in
Snow Depth Not available.
7:01 AM 5:38 PM
Waning Crescent, 5% visible
METAR KABQ 061452Z 28005KT 10SM FEW200 M04/M11 A3050 RMK AO2 SLP348 T10441111 53009

10-Day Weather Forecast

Almanac

Astronomy

Feb. 06, 2016 Rise Set
Actual Time
Civil Twilight
Nautical Twilight
Astronomical Twilight
Moon
Length of Visible Light
Length of Day
Tomorrow will be .
, % of the Moon is Illuminated

Today's Extremes

State Highs State Lows

Community

WunderPhotos

Upload Photos

1,890,987 photos uploaded!

WunderBlog® & News

Nearby

Air Quality

  Air Quality AQ Index Pollutant
Not available.

Snow Depth

Station Depth Elevation

Earthquake Activity

City Distance Mag. Time & Date
Minimum magnitude displayed is 2.5.

Coastal Water Temperatures

Place Temperature

Stations

Nearby Weather Stations

Station Location Temp. Windchill Dew Point Humidity Wind Precip. Elev Updated Type
                   

Watches & Warnings

There are currently no watches in effect.